createdAt,value
2023-03-11T00:07:43.006Z,75.50
2023-03-11T00:15:55.966Z,75.20
2023-03-11T00:24:03.774Z,75.70
2023-03-11T00:32:12.314Z,75.80
2023-03-11T00:40:19.515Z,76.20
2023-03-11T00:48:27.592Z,76.50
2023-03-11T00:56:33.076Z,76.30
2023-03-11T01:04:41.392Z,76.80
2023-03-11T01:12:47.270Z,77.00
2023-03-11T01:20:55.464Z,77.50
2023-03-11T01:29:02.359Z,77.90
2023-03-11T01:37:13.475Z,77.20
2023-03-11T01:45:45.288Z,78.00
2023-03-11T01:53:54.299Z,78.50
2023-03-11T02:02:07.645Z,78.60
2023-03-11T02:10:17.169Z,78.00
2023-03-11T02:18:23.312Z,77.50
2023-03-11T02:26:37.904Z,77.40
2023-03-11T02:34:46.239Z,76.70
2023-03-11T02:42:53.148Z,76.50
2023-03-11T02:51:02.008Z,77.20
2023-03-11T02:59:08.445Z,76.50
2023-03-11T03:07:16.887Z,77.00
2023-03-11T03:15:24.124Z,77.30
2023-03-11T03:23:35.652Z,78.00
2023-03-11T03:31:41.988Z,78.20
2023-03-11T03:39:50.112Z,78.30
2023-03-11T03:47:55.782Z,79.00
2023-03-11T03:56:09.809Z,79.40
2023-03-11T04:04:16.259Z,79.40
2023-03-11T04:12:24.389Z,79.40
2023-03-11T04:20:29.849Z,79.70
2023-03-11T04:28:38.515Z,79.20
2023-03-11T04:36:44.345Z,79.50
2023-03-11T04:44:54.715Z,79.40
2023-03-11T04:53:00.423Z,79.80
2023-03-11T05:01:09.392Z,79.60
2023-03-11T05:09:14.825Z,79.60
2023-03-11T05:17:23.050Z,80.30
2023-03-11T05:25:29.366Z,80.30
2023-03-11T05:33:41.103Z,80.20
2023-03-11T05:41:50.044Z,80.00
2023-03-11T05:49:59.101Z,80.00
2023-03-11T05:58:04.980Z,80.00
2023-03-11T06:06:15.272Z,80.00
2023-03-11T06:14:20.969Z,81.40
2023-03-11T06:22:31.478Z,82.40
2023-03-11T06:30:37.022Z,82.90
2023-03-11T06:38:55.620Z,83.70
2023-03-11T06:47:05.187Z,84.40
2023-03-11T06:55:14.441Z,84.90
2023-03-11T07:03:20.378Z,84.80
2023-03-11T07:11:30.487Z,84.70
2023-03-11T07:19:48.443Z,85.00
2023-03-11T07:27:56.870Z,85.50
2023-03-11T07:36:02.351Z,84.40
2023-03-11T07:44:10.669Z,83.30
2023-03-11T07:52:16.051Z,80.90
2023-03-11T08:00:24.801Z,80.70
2023-03-11T08:08:30.754Z,78.90
2023-03-11T08:16:42.252Z,78.60
2023-03-11T08:24:47.678Z,78.60
2023-03-11T08:32:55.953Z,77.20
2023-03-11T08:41:05.618Z,73.70
2023-03-11T08:49:13.788Z,72.80
2023-03-11T08:57:19.360Z,72.40
2023-03-11T09:05:27.787Z,71.20
2023-03-11T09:13:33.214Z,72.00
2023-03-11T09:21:41.482Z,68.60
2023-03-11T09:29:46.947Z,68.10
2023-03-11T09:37:55.450Z,65.60
2023-03-11T09:46:13.559Z,63.30
2023-03-11T09:54:23.383Z,59.20
2023-03-11T10:02:29.736Z,57.50
2023-03-11T10:10:46.730Z,57.80
2023-03-11T10:18:59.516Z,59.10
2023-03-11T10:27:12.255Z,48.10
2023-03-11T10:35:24.231Z,44.20
2023-03-11T10:43:40.560Z,41.40
2023-03-11T10:51:49.334Z,46.80
2023-03-11T10:59:59.835Z,40.00
2023-03-11T11:08:16.056Z,36.50
2023-03-11T11:16:24.540Z,43.90
2023-03-11T11:24:31.150Z,52.10
2023-03-11T11:32:40.195Z,56.80
2023-03-11T11:40:45.920Z,58.60
2023-03-11T11:49:01.543Z,56.60
2023-03-11T11:57:15.012Z,53.80
2023-03-11T12:05:25.242Z,53.00
2023-03-11T12:13:55.864Z,53.10
2023-03-11T12:22:30.077Z,52.10
2023-03-11T12:30:39.625Z,53.70
2023-03-11T12:38:54.250Z,54.50
2023-03-11T12:47:06.184Z,56.00
2023-03-11T12:55:34.739Z,57.50
2023-03-11T13:03:57.049Z,58.30
2023-03-11T13:12:05.171Z,59.70
2023-03-11T13:21:13.567Z,60.00
2023-03-11T13:29:52.168Z,60.40
2023-03-11T13:38:19.396Z,59.50
2023-03-11T13:46:35.768Z,59.30
2023-03-11T13:54:50.743Z,60.20
2023-03-11T14:03:00.900Z,61.30
2023-03-11T14:11:17.946Z,61.40
2023-03-11T14:19:27.765Z,60.90
2023-03-11T14:27:33.344Z,61.00
2023-03-11T14:35:41.364Z,60.00
2023-03-11T14:43:50.422Z,59.70
2023-03-11T14:52:04.687Z,59.90
2023-03-11T15:00:19.512Z,59.40
2023-03-11T15:08:33.482Z,58.50
2023-03-11T15:16:40.305Z,58.40
2023-03-11T15:24:54.037Z,58.50
2023-03-11T15:33:00.195Z,58.10
2023-03-11T15:41:08.330Z,58.80
2023-03-11T15:49:17.987Z,59.60
2023-03-11T15:57:29.811Z,60.20
2023-03-11T16:05:35.170Z,60.80
2023-03-11T16:13:43.371Z,61.90
2023-03-11T16:21:50.793Z,61.40
2023-03-11T16:29:59.105Z,61.60
2023-03-11T16:38:05.065Z,62.60
2023-03-11T16:46:13.527Z,62.80
2023-03-11T16:54:23.201Z,61.50
2023-03-11T17:02:31.265Z,61.00
2023-03-11T17:10:39.512Z,60.50
2023-03-11T17:18:47.627Z,60.60
2023-03-11T17:26:53.121Z,60.60
2023-03-11T17:35:01.608Z,60.50
2023-03-11T17:43:07.792Z,60.60
2023-03-11T17:51:17.844Z,61.00
2023-03-11T17:59:23.182Z,61.20
2023-03-11T18:07:31.124Z,61.90
2023-03-11T18:15:36.550Z,62.20
2023-03-11T18:23:44.921Z,62.20
2023-03-11T18:31:50.416Z,62.80
2023-03-11T18:39:58.490Z,62.80
2023-03-11T18:48:03.961Z,62.70
2023-03-11T18:56:14.936Z,63.80
2023-03-11T19:04:20.434Z,64.40
2023-03-11T19:12:30.994Z,65.10
2023-03-11T19:20:36.677Z,66.10
2023-03-11T19:28:44.929Z,66.80
2023-03-11T19:36:53.607Z,67.40
2023-03-11T19:45:14.102Z,67.00
2023-03-11T19:53:20.007Z,67.40
2023-03-11T20:01:40.462Z,68.40
2023-03-11T20:09:46.642Z,67.80
2023-03-11T20:17:54.678Z,68.00
2023-03-11T20:26:00.202Z,67.30
2023-03-11T20:34:08.302Z,68.20
2023-03-11T20:42:13.826Z,68.30
2023-03-11T20:50:24.559Z,68.10
2023-03-11T20:58:30.471Z,68.00
2023-03-11T21:06:41.073Z,68.10
2023-03-11T21:14:46.665Z,67.50
2023-03-11T21:22:55.070Z,67.50
2023-03-11T21:31:02.412Z,67.50
2023-03-11T21:39:10.744Z,66.90
2023-03-11T21:47:17.308Z,66.00
2023-03-11T21:55:25.338Z,65.80
2023-03-11T22:03:30.894Z,66.60
2023-03-11T22:11:39.262Z,66.50
2023-03-11T22:19:45.040Z,66.30
2023-03-11T22:27:53.065Z,67.10
2023-03-11T22:36:02.274Z,66.80
2023-03-11T22:44:10.372Z,66.70
2023-03-11T22:52:16.181Z,67.80
2023-03-11T23:00:25.980Z,68.20
2023-03-11T23:08:31.856Z,68.80
2023-03-11T23:16:41.419Z,69.30
2023-03-11T23:24:47.082Z,69.00
2023-03-11T23:32:55.172Z,69.00
2023-03-11T23:41:01.007Z,68.80
2023-03-11T23:49:09.132Z,67.90
2023-03-11T23:57:14.558Z,68.00
